Time;durP1;ratioP1;P1;durP2;ratioP2;P2;SDS_P1;SDS_P2;PMS_P1;PMS_P2;Temp;Humidity;BMP_temperature;BMP_pressure;BME280_temperature;BME280_humidity;BME280_pressure;Samples;Min_cycle;Max_cycle;Signal;HPM_P1;HPM_P2
2024/04/16 00:00:11;;;;;;;4.60;4.20;;;6.20;99.90;;;;;;5383950;26;20216;-60
2024/04/16 00:02:37;;;;;;;4.30;4.00;;;6.10;99.90;;;;;;5383658;26;20272;-60
2024/04/16 00:05:06;;;;;;;3.70;3.40;;;6.10;99.90;;;;;;5386786;26;20298;-60
2024/04/16 00:07:35;;;;;;;3.75;3.45;;;6.10;99.90;;;;;;5392208;26;20606;-59
2024/04/16 00:10:03;;;;;;;3.30;3.00;;;6.00;99.90;;;;;;5387245;26;20346;-60
2024/04/16 00:12:29;;;;;;;3.00;2.80;;;6.00;99.90;;;;;;5384112;26;20275;-59
2024/04/16 00:14:57;;;;;;;3.27;2.60;;;6.00;99.90;;;;;;5384129;26;20653;-60
2024/04/16 00:17:27;;;;;;;2.90;2.70;;;6.00;99.90;;;;;;5386967;26;20223;-59
2024/04/16 00:19:55;;;;;;;2.85;2.65;;;6.00;99.90;;;;;;5384481;26;20605;-60
2024/04/16 00:22:21;;;;;;;2.33;2.20;;;6.00;99.90;;;;;;5383694;26;20271;-60
2024/04/16 00:24:52;;;;;;;4.43;2.20;;;6.00;99.90;;;;;;5385413;26;20223;-60
2024/04/16 00:27:18;;;;;;;2.90;2.47;;;6.00;99.90;;;;;;5385194;26;20531;-59
2024/04/16 00:29:47;;;;;;;2.60;2.10;;;6.00;99.90;;;;;;5386242;26;20250;-61
2024/04/16 00:32:12;;;;;;;3.20;2.10;;;6.00;99.90;;;;;;5387366;26;20525;-60
2024/04/16 00:34:41;;;;;;;4.20;2.13;;;6.10;99.90;;;;;;5390318;26;20557;-60
2024/04/16 00:37:07;;;;;;;2.35;2.00;;;6.10;99.90;;;;;;5387437;26;20274;-59
2024/04/16 00:39:35;;;;;;;4.70;1.93;;;6.10;99.90;;;;;;5387694;26;20216;-60
2024/04/16 00:42:04;;;;;;;2.00;1.60;;;6.10;99.90;;;;;;5387093;26;20472;-58
2024/04/16 00:44:33;;;;;;;1.98;1.58;;;6.20;99.90;;;;;;5387115;26;20216;-60
2024/04/16 00:46:59;;;;;;;4.45;2.05;;;6.20;99.90;;;;;;5386941;26;20272;-60
2024/04/16 00:49:28;;;;;;;2.80;1.70;;;6.10;99.90;;;;;;5387316;26;20224;-60
2024/04/16 00:51:54;;;;;;;4.78;2.00;;;6.10;99.90;;;;;;5386198;26;20339;-61
2024/04/16 00:54:23;;;;;;;1.80;1.70;;;6.10;99.90;;;;;;5387413;26;20220;-59
2024/04/16 00:56:49;;;;;;;2.95;2.03;;;6.10;99.90;;;;;;5386769;26;20506;-60
2024/04/16 00:59:20;;;;;;;2.20;2.08;;;6.10;99.90;;;;;;5386939;26;20288;-60
2024/04/16 01:01:46;;;;;;;2.28;2.10;;;6.10;99.90;;;;;;5386221;26;20233;-60
2024/04/16 01:04:14;;;;;;;2.03;1.83;;;6.10;99.90;;;;;;5388107;26;20619;-59
2024/04/16 01:06:40;;;;;;;6.00;2.58;;;6.10;99.90;;;;;;5391257;26;20250;-59
2024/04/16 01:09:11;;;;;;;2.50;2.30;;;6.10;99.90;;;;;;5391809;26;20216;-59
2024/04/16 01:11:37;;;;;;;3.42;2.40;;;6.10;99.90;;;;;;5392275;26;20940;-59
2024/04/16 01:14:05;;;;;;;2.77;2.30;;;6.10;99.90;;;;;;5393232;26;20220;-59
2024/04/16 01:16:33;;;;;;;4.28;2.50;;;6.10;99.90;;;;;;5393099;26;20216;-59
2024/04/16 01:19:02;;;;;;;3.10;2.05;;;6.10;99.90;;;;;;5389674;26;20240;-60
2024/04/16 01:21:28;;;;;;;2.30;2.10;;;6.00;99.90;;;;;;5387344;26;20730;-59
2024/04/16 01:23:59;;;;;;;3.23;2.43;;;5.90;99.90;;;;;;5387854;26;20313;-60
2024/04/16 01:26:25;;;;;;;3.47;2.60;;;5.70;99.90;;;;;;5387939;26;20470;-60
2024/04/16 01:28:53;;;;;;;6.47;2.80;;;5.60;99.90;;;;;;5389488;26;20224;-59
2024/04/16 01:31:19;;;;;;;2.67;2.40;;;5.50;99.90;;;;;;5387087;26;20316;-60
2024/04/16 01:33:47;;;;;;;5.23;2.80;;;5.50;99.90;;;;;;5389049;26;20228;-59
2024/04/16 01:36:14;;;;;;;3.10;2.30;;;5.40;99.90;;;;;;5391817;26;20520;-59
2024/04/16 01:38:42;;;;;;;2.83;1.80;;;5.30;99.90;;;;;;5391481;26;20262;-59
2024/04/16 01:41:11;;;;;;;5.97;1.73;;;5.20;99.90;;;;;;5390072;26;20220;-59
2024/04/16 01:43:40;;;;;;;2.40;2.00;;;5.20;99.90;;;;;;5392611;26;20237;-59
2024/04/16 01:46:06;;;;;;;3.17;2.13;;;5.10;99.90;;;;;;5392178;26;20220;-59
2024/04/16 01:48:34;;;;;;;3.20;2.10;;;5.00;99.90;;;;;;5392615;26;20294;-59
2024/04/16 01:51:00;;;;;;;4.13;2.47;;;5.00;99.90;;;;;;5391649;26;20228;-59
2024/04/16 01:53:28;;;;;;;2.53;1.37;;;5.00;99.90;;;;;;5391401;26;20232;-59
2024/04/16 01:55:54;;;;;;;1.10;1.00;;;5.00;99.90;;;;;;5391637;26;20316;-59
2024/04/16 01:58:25;;;;;;;2.57;1.70;;;5.00;99.90;;;;;;5390636;26;20232;-60
2024/04/16 02:00:58;;;;;;;1.13;1.02;;;4.90;99.90;;;;;;5389228;26;20454;-59
2024/04/16 02:03:26;;;;;;;3.20;1.08;;;4.90;99.90;;;;;;5407026;21;20264;-66
2024/04/16 02:05:53;;;;;;;1.30;1.20;;;4.80;99.90;;;;;;5384056;26;20321;-67
2024/04/16 02:08:22;;;;;;;1.88;1.58;;;4.80;99.90;;;;;;5383676;26;20286;-66
2024/04/16 02:10:51;;;;;;;3.38;1.60;;;4.70;99.90;;;;;;5383457;26;20272;-65
2024/04/16 02:13:19;;;;;;;1.70;1.45;;;4.70;99.90;;;;;;5383558;26;20329;-66
2024/04/16 02:15:48;;;;;;;2.08;1.50;;;4.70;99.90;;;;;;5383518;26;20236;-67
2024/04/16 02:18:16;;;;;;;1.95;1.77;;;4.70;99.90;;;;;;5383496;26;20212;-68
2024/04/16 02:20:43;;;;;;;1.73;1.63;;;4.70;99.90;;;;;;5383764;26;20343;-65
2024/04/16 02:23:11;;;;;;;2.45;2.08;;;4.70;99.90;;;;;;5383413;26;20232;-66
2024/04/16 02:25:37;;;;;;;2.80;2.53;;;4.70;99.90;;;;;;5383470;26;20275;-67
2024/04/16 02:28:05;;;;;;;3.80;2.70;;;4.80;99.90;;;;;;5383297;26;20224;-66
2024/04/16 02:30:33;;;;;;;4.00;3.13;;;4.80;99.90;;;;;;5383275;26;20498;-65
2024/04/16 02:33:04;;;;;;;3.90;3.33;;;4.80;99.90;;;;;;5383158;26;20297;-66
2024/04/16 02:35:32;;;;;;;4.60;3.55;;;4.80;99.90;;;;;;5383862;26;20326;-65
2024/04/16 02:38:00;;;;;;;4.35;3.92;;;4.90;99.90;;;;;;5383507;26;20264;-66
2024/04/16 02:40:26;;;;;;;4.90;4.00;;;4.90;99.90;;;;;;5383251;26;20220;-66
2024/04/16 02:42:54;;;;;;;5.83;4.73;;;4.90;99.90;;;;;;5383471;26;20333;-67
2024/04/16 02:45:21;;;;;;;6.07;5.10;;;4.90;99.90;;;;;;5383470;26;20818;-65
2024/04/16 02:47:50;;;;;;;7.65;4.90;;;4.90;99.90;;;;;;5383240;26;20231;-66
2024/04/16 02:50:18;;;;;;;6.57;5.80;;;5.00;99.90;;;;;;5383258;26;20228;-66
2024/04/16 02:52:47;;;;;;;6.85;6.03;;;5.00;99.90;;;;;;5381696;26;20228;-65
2024/04/16 02:55:17;;;;;;;7.03;5.78;;;5.00;99.90;;;;;;5382697;26;20336;-64
2024/04/16 02:57:45;;;;;;;7.57;6.13;;;5.10;99.90;;;;;;5382738;26;20224;-65
2024/04/16 03:00:12;;;;;;;7.65;6.78;;;5.10;99.90;;;;;;5382745;26;20220;-66
2024/04/16 03:02:41;;;;;;;8.15;6.93;;;5.10;99.90;;;;;;5382685;26;20569;-65
2024/04/16 03:05:07;;;;;;;9.25;7.22;;;5.20;99.90;;;;;;5382749;26;20347;-65
2024/04/16 03:07:38;;;;;;;9.97;7.40;;;5.20;99.90;;;;;;5382618;26;20228;-65
2024/04/16 03:10:05;;;;;;;11.02;8.15;;;5.30;99.90;;;;;;5383021;26;20450;-65
2024/04/16 03:12:33;;;;;;;9.70;8.30;;;5.30;99.90;;;;;;5383701;26;20228;-65
2024/04/16 03:14:59;;;;;;;12.38;7.88;;;5.40;99.90;;;;;;5384155;26;20220;-65
2024/04/16 03:17:27;;;;;;;12.67;7.97;;;5.40;99.90;;;;;;5382359;26;20313;-64
2024/04/16 03:19:53;;;;;;;11.68;9.20;;;5.40;99.90;;;;;;5382239;26;20228;-64
2024/04/16 03:22:22;;;;;;;15.52;9.40;;;5.40;99.90;;;;;;5382043;26;20583;-64
2024/04/16 03:24:53;;;;;;;13.23;9.20;;;5.40;99.90;;;;;;5382188;26;20251;-65
2024/04/16 03:27:21;;;;;;;13.45;8.18;;;5.50;99.90;;;;;;5382766;26;20235;-65
2024/04/16 03:29:47;;;;;;;13.88;9.00;;;5.50;99.90;;;;;;5382300;26;20276;-63
2024/04/16 03:32:16;;;;;;;12.60;9.50;;;5.50;99.90;;;;;;5381705;26;20318;-64
2024/04/16 03:34:42;;;;;;;15.18;9.07;;;5.50;99.90;;;;;;5382000;26;20699;-64
2024/04/16 03:37:10;;;;;;;15.00;9.63;;;5.50;99.90;;;;;;5381767;26;20270;-64
2024/04/16 03:39:39;;;;;;;15.43;8.93;;;5.50;99.90;;;;;;5383010;26;20325;-64
2024/04/16 03:42:10;;;;;;;12.73;8.30;;;5.50;99.90;;;;;;5382136;26;20564;-65
2024/04/16 03:44:38;;;;;;;11.88;9.07;;;5.60;99.90;;;;;;5382145;26;20221;-64
2024/04/16 03:47:05;;;;;;;14.70;8.43;;;5.60;99.90;;;;;;5381668;26;20282;-64
2024/04/16 03:49:33;;;;;;;12.30;8.70;;;5.60;99.90;;;;;;5381877;26;20242;-65
2024/04/16 03:51:59;;;;;;;10.63;7.60;;;5.60;99.90;;;;;;5381815;26;20671;-64
2024/04/16 03:54:27;;;;;;;12.27;8.70;;;5.60;99.90;;;;;;5382178;26;20216;-65
2024/04/16 03:56:53;;;;;;;10.52;8.70;;;5.60;99.90;;;;;;5381792;26;20334;-65
2024/04/16 03:59:37;;;;;;;7.87;6.37;;;5.60;99.90;;;;;;5381901;26;20219;-65
2024/04/16 04:02:04;;;;;;;13.20;6.38;;;5.50;99.90;;;;;;5381421;26;20462;-65
2024/04/16 04:04:33;;;;;;;9.18;6.30;;;5.40;99.90;;;;;;5381312;26;20597;-64
2024/04/16 04:06:59;;;;;;;8.48;6.10;;;5.30;99.90;;;;;;5381963;26;20222;-65
2024/04/16 04:09:27;;;;;;;8.00;5.80;;;5.20;99.90;;;;;;5382813;26;20246;-65
2024/04/16 04:13:35;;;;;;;9.27;6.28;;;5.10;99.90;;;;;;5508808;25;20979;-64
2024/04/16 04:16:03;;;;;;;7.88;6.85;;;5.10;99.90;;;;;;5472632;26;20335;-65
2024/04/16 04:18:29;;;;;;;8.32;6.45;;;5.00;99.90;;;;;;5471705;26;20213;-64
2024/04/16 04:20:57;;;;;;;9.03;7.23;;;5.00;99.90;;;;;;5471904;26;20252;-65
2024/04/16 04:23:23;;;;;;;10.93;8.30;;;5.00;99.90;;;;;;5471843;26;20786;-65
2024/04/16 04:25:52;;;;;;;11.30;7.93;;;5.00;99.90;;;;;;5471904;26;20318;-65
2024/04/16 04:28:17;;;;;;;12.35;8.20;;;5.10;99.90;;;;;;5471736;26;20506;-64
2024/04/16 04:30:51;;;;;;;11.93;9.00;;;5.10;99.90;;;;;;5471448;26;20671;-63
2024/04/16 04:33:17;;;;;;;11.82;8.85;;;5.10;99.90;;;;;;5471963;26;20739;-64
2024/04/16 04:35:45;;;;;;;12.20;9.40;;;5.20;99.90;;;;;;5472183;26;20222;-65
2024/04/16 04:38:11;;;;;;;13.20;8.63;;;5.20;99.90;;;;;;5472134;26;20502;-64
2024/04/16 04:40:39;;;;;;;12.70;8.60;;;5.30;99.90;;;;;;5472708;26;20317;-63
2024/04/16 04:43:05;;;;;;;8.55;6.80;;;5.30;99.90;;;;;;5471245;26;20229;-64
2024/04/16 04:45:33;;;;;;;13.33;8.77;;;5.30;99.90;;;;;;5471700;26;20804;-65
2024/04/16 04:48:02;;;;;;;15.18;8.40;;;5.40;99.90;;;;;;5471446;26;20273;-64
2024/04/16 04:50:30;;;;;;;10.05;7.60;;;5.40;99.90;;;;;;5471201;26;20249;-64
2024/04/16 04:52:56;;;;;;;11.88;8.15;;;5.50;99.90;;;;;;5471652;26;20269;-64
2024/04/16 04:55:25;;;;;;;11.27;6.93;;;5.50;99.90;;;;;;5471762;26;20321;-65
2024/04/16 04:57:50;;;;;;;7.93;7.03;;;5.60;99.90;;;;;;5471204;26;20309;-65
2024/04/16 05:00:19;;;;;;;11.37;6.43;;;5.60;99.90;;;;;;5470765;26;20218;-64
2024/04/16 05:02:45;;;;;;;10.68;6.70;;;5.60;99.90;;;;;;5472122;26;20241;-66
2024/04/16 05:05:16;;;;;;;12.10;6.40;;;5.60;99.90;;;;;;5472054;26;20541;-64
2024/04/16 05:07:42;;;;;;;8.75;6.40;;;5.70;99.90;;;;;;5472156;26;20455;-63
2024/04/16 05:10:11;;;;;;;9.23;6.37;;;5.70;99.90;;;;;;5472255;26;20615;-64
2024/04/16 05:12:36;;;;;;;10.43;6.57;;;5.70;99.90;;;;;;5471576;26;20570;-65
2024/04/16 05:15:05;;;;;;;12.20;5.73;;;5.70;99.90;;;;;;5471958;26;20260;-63
2024/04/16 05:17:31;;;;;;;10.13;5.43;;;5.80;99.90;;;;;;5472692;26;20233;-64
2024/04/16 05:20:00;;;;;;;9.30;4.80;;;5.80;99.90;;;;;;5472960;26;20313;-62
2024/04/16 05:22:28;;;;;;;5.32;4.45;;;5.80;99.90;;;;;;5472180;26;20630;-64
2024/04/16 05:24:57;;;;;;;13.48;5.28;;;5.90;99.90;;;;;;5455956;26;20332;-65
2024/04/16 05:27:22;;;;;;;9.75;4.57;;;5.90;99.90;;;;;;5456768;26;20804;-64
2024/04/16 05:29:51;;;;;;;7.30;4.53;;;5.90;99.90;;;;;;5456523;26;20226;-65
2024/04/16 05:32:17;;;;;;;8.45;5.18;;;6.00;99.90;;;;;;5457446;26;20233;-64
2024/04/16 05:34:48;;;;;;;5.72;4.00;;;6.00;99.90;;;;;;5455495;26;20257;-64
2024/04/16 05:37:14;;;;;;;10.07;4.70;;;6.00;99.90;;;;;;5455177;26;20210;-63
2024/04/16 05:39:45;;;;;;;6.80;4.33;;;6.00;99.90;;;;;;5456158;26;20629;-63
2024/04/16 05:42:12;;;;;;;8.13;4.47;;;6.00;99.90;;;;;;5455910;26;20735;-64
2024/04/16 05:44:41;;;;;;;4.95;3.28;;;6.10;99.90;;;;;;5455942;26;20226;-64
2024/04/16 05:47:06;;;;;;;5.50;3.38;;;6.10;99.90;;;;;;5455555;26;20601;-65
2024/04/16 05:49:36;;;;;;;5.60;3.50;;;6.10;99.90;;;;;;5455031;26;20251;-63
2024/04/16 05:52:02;;;;;;;5.65;4.20;;;6.10;99.90;;;;;;5454904;26;20512;-64
2024/04/16 05:54:31;;;;;;;7.53;4.00;;;6.10;99.90;;;;;;5456521;26;20704;-63
2024/04/16 05:57:00;;;;;;;5.68;3.65;;;6.20;99.90;;;;;;5455824;26;20214;-63
2024/04/16 05:59:28;;;;;;;7.03;5.35;;;6.30;99.90;;;;;;5455684;26;20249;-63
2024/04/16 06:01:54;;;;;;;4.63;3.60;;;6.30;99.90;;;;;;5454631;26;20226;-64
2024/04/16 06:04:23;;;;;;;5.27;3.60;;;6.40;99.90;;;;;;5456120;26;20286;-64
2024/04/16 06:06:48;;;;;;;4.93;3.25;;;6.60;99.90;;;;;;5455907;26;20564;-64
2024/04/16 06:09:17;;;;;;;4.20;3.37;;;6.70;99.90;;;;;;5455395;26;20210;-64
2024/04/16 06:11:43;;;;;;;5.30;3.88;;;6.70;99.90;;;;;;5454473;26;20340;-66
2024/04/16 06:14:14;;;;;;;5.93;4.30;;;6.80;99.90;;;;;;5455620;26;20230;-63
2024/04/16 06:16:39;;;;;;;8.18;3.83;;;7.00;99.90;;;;;;5456203;26;20214;-63
2024/04/16 06:19:08;;;;;;;6.53;4.27;;;7.00;99.90;;;;;;5455379;26;20260;-64
2024/04/16 06:21:34;;;;;;;6.70;3.72;;;7.00;99.90;;;;;;5455359;26;20226;-65
2024/04/16 06:24:02;;;;;;;6.73;3.90;;;7.10;99.90;;;;;;5455197;26;20314;-64
2024/04/16 06:26:28;;;;;;;5.53;3.60;;;7.20;99.90;;;;;;5455536;26;20503;-63
2024/04/16 06:28:57;;;;;;;4.90;3.00;;;7.20;99.90;;;;;;5454871;26;20230;-65
2024/04/16 06:31:25;;;;;;;9.07;3.38;;;7.30;99.90;;;;;;5454723;26;20589;-63
2024/04/16 06:33:53;;;;;;;6.82;4.32;;;7.30;99.90;;;;;;5454016;26;20226;-64
2024/04/16 06:36:19;;;;;;;6.65;3.30;;;7.30;99.90;;;;;;5452307;26;20303;-64
2024/04/16 06:38:48;;;;;;;5.10;3.60;;;7.30;99.90;;;;;;5454928;26;20226;-64
2024/04/16 06:41:14;;;;;;;5.53;3.30;;;7.30;99.90;;;;;;5457239;26;20578;-64
2024/04/16 06:43:43;;;;;;;4.88;3.45;;;7.30;99.90;;;;;;5456588;26;20664;-64
2024/04/16 06:46:08;;;;;;;5.60;3.30;;;7.30;99.90;;;;;;5456710;26;20283;-65
2024/04/16 06:48:40;;;;;;;3.93;3.07;;;7.20;99.90;;;;;;5456621;26;20227;-63
2024/04/16 06:51:05;;;;;;;4.15;3.13;;;7.20;99.90;;;;;;5457258;26;20560;-63
2024/04/16 06:53:34;;;;;;;5.57;3.87;;;7.20;99.90;;;;;;5456197;26;20234;-64
2024/04/16 06:56:00;;;;;;;5.70;3.75;;;7.20;99.90;;;;;;5455938;26;20557;-64
2024/04/16 06:58:29;;;;;;;3.35;3.05;;;7.20;99.90;;;;;;5454882;26;20566;-63
2024/04/16 07:00:55;;;;;;;5.45;3.65;;;7.10;99.90;;;;;;5454816;26;20567;-64
2024/04/16 07:03:24;;;;;;;5.70;3.42;;;7.00;99.90;;;;;;5455178;26;20326;-63
2024/04/16 07:05:52;;;;;;;6.72;3.10;;;7.00;99.90;;;;;;5454803;26;20332;-64
2024/04/16 07:08:22;;;;;;;6.72;3.35;;;7.00;99.90;;;;;;5454415;26;20213;-64
2024/04/16 07:10:48;;;;;;;3.88;3.50;;;7.00;99.90;;;;;;5455410;26;20210;-64
2024/04/16 07:13:19;;;;;;;5.05;4.55;;;7.00;99.90;;;;;;5455413;26;20272;-64
2024/04/16 07:15:45;;;;;;;3.50;2.95;;;7.10;99.90;;;;;;5455331;26;20215;-64
2024/04/16 07:18:13;;;;;;;3.80;3.40;;;7.20;99.90;;;;;;5455169;26;20330;-64
2024/04/16 07:20:45;;;;;;;6.05;3.55;;;7.30;99.90;;;;;;5454229;26;20542;-64
2024/04/16 07:23:16;;;;;;;9.80;6.20;;;7.30;99.90;;;;;;5454515;26;20716;-63
2024/04/16 07:25:44;;;;;;;4.00;3.60;;;7.40;99.90;;;;;;5457346;26;20310;-65
2024/04/16 07:28:13;;;;;;;3.83;3.22;;;7.50;99.90;;;;;;5454914;26;20748;-65
2024/04/16 07:30:39;;;;;;;4.65;3.40;;;7.60;99.90;;;;;;5454636;26;20323;-63
2024/04/16 07:33:07;;;;;;;4.13;2.63;;;7.70;99.90;;;;;;5454350;26;20238;-62
2024/04/16 07:35:33;;;;;;;3.83;3.08;;;7.80;99.90;;;;;;5455060;26;20508;-64
2024/04/16 07:38:02;;;;;;;4.10;3.20;;;8.00;99.90;;;;;;5455201;26;20234;-65
2024/04/16 07:40:32;;;;;;;3.40;3.10;;;8.20;99.90;;;;;;5454488;26;20558;-65
2024/04/16 07:43:00;;;;;;;4.35;2.97;;;8.40;99.90;;;;;;5453410;26;20218;-65
2024/04/16 07:45:26;;;;;;;5.68;3.08;;;8.40;99.90;;;;;;5453961;26;20322;-64
2024/04/16 07:47:54;;;;;;;3.90;2.80;;;8.60;99.90;;;;;;5453340;26;20225;-65
2024/04/16 07:50:20;;;;;;;3.80;2.80;;;8.70;99.90;;;;;;5453952;26;20289;-64
2024/04/16 07:52:48;;;;;;;3.27;2.97;;;8.80;99.90;;;;;;5453697;26;20295;-65
2024/04/16 07:55:14;;;;;;;2.95;2.72;;;9.00;99.90;;;;;;5454211;26;20269;-64
2024/04/16 07:57:45;;;;;;;3.60;2.60;;;9.10;99.90;;;;;;5453576;26;20210;-65
2024/04/16 08:00:12;;;;;;;3.58;3.03;;;9.00;99.90;;;;;;5454293;26;20919;-65
2024/04/16 08:02:41;;;;;;;4.00;3.30;;;9.10;99.90;;;;;;5453242;26;20241;-65
2024/04/16 08:05:06;;;;;;;5.15;2.50;;;9.20;99.90;;;;;;5454355;26;20270;-64
2024/04/16 08:07:35;;;;;;;2.90;2.70;;;9.30;99.90;;;;;;5453515;26;20209;-65
2024/04/16 08:10:03;;;;;;;2.70;2.50;;;9.40;99.90;;;;;;5453666;26;20451;-64
2024/04/16 08:12:31;;;;;;;3.03;2.40;;;9.50;99.90;;;;;;5453320;26;20471;-64
2024/04/16 08:15:00;;;;;;;3.77;2.60;;;9.70;99.90;;;;;;5452985;26;20583;-64
2024/04/16 08:17:28;;;;;;;3.03;2.73;;;9.90;99.90;;;;;;5453940;26;20444;-64
2024/04/16 08:19:54;;;;;;;3.23;2.60;;;10.00;97.80;;;;;;5453308;26;20557;-64
2024/04/16 08:22:22;;;;;;;4.43;3.20;;;10.10;97.60;;;;;;5453384;26;20471;-64
2024/04/16 08:24:49;;;;;;;6.20;3.00;;;10.10;96.40;;;;;;5453073;26;20211;-65
2024/04/16 08:27:18;;;;;;;2.43;2.23;;;10.20;96.40;;;;;;5453288;26;20866;-63
2024/04/16 08:29:45;;;;;;;3.33;2.83;;;10.30;95.20;;;;;;5452818;26;20504;-64
2024/04/16 08:32:16;;;;;;;6.27;2.60;;;10.20;92.50;;;;;;5452535;26;21059;-64
2024/04/16 08:34:42;;;;;;;2.77;2.30;;;10.10;92.50;;;;;;5452585;26;20559;-64
2024/04/16 08:37:11;;;;;;;5.10;2.47;;;10.00;92.80;;;;;;5452330;26;20459;-63
2024/04/16 08:39:36;;;;;;;4.63;2.53;;;10.00;92.60;;;;;;5453155;26;20261;-64
2024/04/16 08:42:06;;;;;;;2.60;2.30;;;10.00;92.20;;;;;;5452808;26;20989;-63
2024/04/16 08:44:33;;;;;;;2.93;2.63;;;10.10;92.30;;;;;;5453271;26;20500;-63
2024/04/16 08:47:03;;;;;;;6.03;3.47;;;10.20;91.50;;;;;;5452684;26;20518;-63
2024/04/16 08:49:34;;;;;;;2.70;2.00;;;10.10;91.10;;;;;;5452238;26;20573;-63
2024/04/16 08:52:03;;;;;;;6.00;2.73;;;10.20;90.90;;;;;;5452803;26;20469;-64
2024/04/16 08:54:31;;;;;;;3.93;1.90;;;10.20;90.70;;;;;;5453507;26;20583;-62
2024/04/16 08:56:59;;;;;;;4.77;2.43;;;10.30;90.70;;;;;;5452601;26;20452;-63
2024/04/16 08:59:25;;;;;;;3.03;2.73;;;10.50;90.30;;;;;;5454226;26;20555;-63
2024/04/16 09:01:56;;;;;;;3.70;2.57;;;10.60;89.40;;;;;;5456610;26;20988;-65
2024/04/16 09:04:23;;;;;;;3.37;2.40;;;10.60;87.30;;;;;;5456763;26;20827;-64
2024/04/16 09:06:56;;;;;;;3.47;2.37;;;10.70;86.40;;;;;;5458334;26;20493;-64
2024/04/16 09:09:21;;;;;;;5.53;2.50;;;10.70;85.40;;;;;;5457085;26;20451;-64
2024/04/16 09:11:50;;;;;;;2.60;2.30;;;10.70;84.80;;;;;;5456571;26;20933;-64
2024/04/16 09:14:16;;;;;;;4.17;2.10;;;10.70;84.80;;;;;;5457010;26;21009;-64
2024/04/16 09:16:44;;;;;;;3.50;2.00;;;10.80;83.60;;;;;;5456814;26;20455;-64
2024/04/16 09:19:11;;;;;;;2.67;2.30;;;10.80;82.30;;;;;;5456558;26;20735;-65
2024/04/16 09:21:40;;;;;;;3.80;1.90;;;10.90;81.90;;;;;;5455479;26;20455;-64
2024/04/16 09:24:10;;;;;;;6.23;2.17;;;11.00;80.70;;;;;;5455285;26;20451;-64
2024/04/16 09:26:39;;;;;;;2.40;1.97;;;11.10;79.10;;;;;;5456525;26;20760;-63
2024/04/16 09:29:05;;;;;;;2.50;1.87;;;11.30;78.00;;;;;;5455420;26;20515;-64
2024/04/16 09:31:34;;;;;;;2.80;1.90;;;11.50;77.10;;;;;;5455579;26;20463;-64
2024/04/16 09:34:05;;;;;;;2.70;1.87;;;11.90;76.50;;;;;;5455294;26;20506;-64
2024/04/16 09:36:35;;;;;;;4.90;2.17;;;12.30;74.50;;;;;;5456126;26;20439;-64
2024/04/16 09:39:00;;;;;;;2.60;1.67;;;12.60;72.00;;;;;;5456124;26;20583;-65
2024/04/16 09:41:33;;;;;;;6.80;2.27;;;12.60;70.20;;;;;;5455300;26;20462;-64
2024/04/16 09:43:59;;;;;;;5.03;2.27;;;12.60;70.40;;;;;;5455157;26;20835;-63
2024/04/16 09:46:30;;;;;;;2.07;1.40;;;12.70;70.00;;;;;;5455535;26;20838;-65
2024/04/16 09:48:57;;;;;;;2.90;2.60;;;12.70;68.80;;;;;;5457032;26;20416;-64
2024/04/16 09:51:28;;;;;;;4.63;2.00;;;12.60;68.20;;;;;;5456436;26;20451;-64
2024/04/16 09:53:55;;;;;;;2.57;1.70;;;12.70;68.20;;;;;;5455637;26;20507;-65
2024/04/16 09:56:26;;;;;;;2.70;1.60;;;12.70;67.80;;;;;;5455583;26;20553;-62
2024/04/16 09:58:57;;;;;;;3.63;2.10;;;12.80;67.20;;;;;;5455864;26;20583;-63
2024/04/16 10:01:26;;;;;;;5.70;2.00;;;12.90;66.70;;;;;;5455952;26;20772;-64
2024/04/16 10:03:54;;;;;;;2.20;1.50;;;13.10;66.40;;;;;;5455193;26;20519;-64
2024/04/16 10:06:22;;;;;;;2.40;1.90;;;13.40;65.30;;;;;;5456605;26;20510;-63
2024/04/16 10:08:48;;;;;;;1.90;1.60;;;13.60;64.00;;;;;;5455974;26;20447;-64
2024/04/16 10:11:18;;;;;;;4.40;1.93;;;13.50;62.90;;;;;;5455006;26;20859;-64
2024/04/16 10:13:44;;;;;;;2.10;1.70;;;13.40;62.60;;;;;;5454448;26;20515;-64
2024/04/16 10:16:18;;;;;;;3.93;1.33;;;13.30;62.60;;;;;;5455831;26;20561;-64
2024/04/16 10:18:53;;;;;;;2.53;1.90;;;13.00;62.50;;;;;;5454663;26;20479;-65
2024/04/16 10:21:24;;;;;;;4.90;1.80;;;12.70;62.40;;;;;;5454888;26;20992;-64
2024/04/16 10:23:59;;;;;;;2.70;1.77;;;12.50;62.40;;;;;;5455345;26;20505;-63
2024/04/16 10:26:29;;;;;;;3.13;1.60;;;12.20;62.80;;;;;;5455283;26;20865;-64
2024/04/16 10:28:55;;;;;;;4.07;2.40;;;12.00;63.00;;;;;;5455656;26;20530;-65
2024/04/16 10:31:33;;;;;;;2.30;1.53;;;12.00;63.40;;;;;;5454496;26;20452;-64
2024/04/16 10:34:00;;;;;;;2.73;1.60;;;12.00;63.30;;;;;;5455514;26;20455;-64
2024/04/16 10:36:30;;;;;;;2.60;1.80;;;12.00;63.10;;;;;;5455398;26;20451;-64
2024/04/16 10:38:56;;;;;;;3.10;2.03;;;12.10;63.20;;;;;;5455479;26;20451;-64
2024/04/16 10:41:28;;;;;;;3.30;1.60;;;12.20;63.00;;;;;;5454426;26;20512;-64
2024/04/16 10:43:55;;;;;;;3.60;1.50;;;12.20;62.20;;;;;;5454804;26;20475;-64
2024/04/16 10:46:28;;;;;;;4.37;2.20;;;12.20;62.20;;;;;;5454042;26;20460;-62
2024/04/16 10:48:55;;;;;;;2.57;1.70;;;12.30;62.50;;;;;;5453962;26;20569;-64
2024/04/16 10:51:23;;;;;;;5.00;1.60;;;12.50;62.50;;;;;;5454479;26;20515;-64
2024/04/16 10:53:49;;;;;;;4.03;1.93;;;12.60;61.80;;;;;;5453723;26;20467;-65
2024/04/16 10:56:18;;;;;;;4.47;2.10;;;12.50;61.20;;;;;;5454037;26;20554;-65
2024/04/16 10:58:44;;;;;;;3.97;1.87;;;12.30;61.20;;;;;;5453589;26;20556;-65
2024/04/16 11:01:12;;;;;;;5.30;1.80;;;12.20;61.60;;;;;;5454081;26;20454;-65
2024/04/16 11:03:41;;;;;;;4.30;2.60;;;12.00;62.40;;;;;;5453988;26;20525;-64
2024/04/16 11:06:11;;;;;;;3.17;2.00;;;11.90;63.10;;;;;;5453660;26;20537;-65
2024/04/16 11:08:38;;;;;;;2.67;1.90;;;11.90;64.20;;;;;;5453375;26;20459;-65
2024/04/16 11:11:07;;;;;;;2.53;2.33;;;11.90;65.20;;;;;;5453822;26;20500;-66
2024/04/16 11:13:33;;;;;;;5.40;1.40;;;12.00;66.10;;;;;;5454938;26;20557;-64
2024/04/16 11:16:02;;;;;;;2.27;1.73;;;12.00;66.60;;;;;;5453984;26;20851;-65
2024/04/16 11:18:30;;;;;;;2.00;1.80;;;11.90;67.20;;;;;;5453118;26;20447;-63
2024/04/16 11:21:01;;;;;;;1.90;1.50;;;11.80;67.80;;;;;;5453795;26;20443;-65
2024/04/16 11:23:27;;;;;;;2.23;2.00;;;11.70;68.30;;;;;;5454675;26;20470;-66
2024/04/16 11:25:56;;;;;;;2.60;1.60;;;11.70;69.50;;;;;;5454484;26;20499;-63
2024/04/16 11:28:21;;;;;;;2.83;2.03;;;11.90;71.20;;;;;;5454524;26;20451;-65
2024/04/16 11:30:57;;;;;;;3.27;2.97;;;11.90;71.70;;;;;;5454876;26;20504;-65
2024/04/16 11:33:24;;;;;;;2.40;2.20;;;11.80;74.20;;;;;;5454230;26;20463;-65
2024/04/16 11:35:52;;;;;;;2.80;2.30;;;12.00;79.00;;;;;;5453951;26;20582;-64
2024/04/16 11:38:21;;;;;;;5.00;1.83;;;12.10;82.90;;;;;;5455178;26;20565;-64
2024/04/16 11:40:50;;;;;;;2.57;1.90;;;12.30;85.70;;;;;;5454958;26;20843;-63
2024/04/16 11:43:16;;;;;;;3.83;1.53;;;12.30;87.50;;;;;;5454118;26;20599;-64
2024/04/16 11:45:45;;;;;;;6.00;4.83;;;12.30;90.10;;;;;;5454127;26;20499;-66
2024/04/16 11:48:12;;;;;;;3.50;2.17;;;12.40;91.20;;;;;;5453721;26;20448;-66
2024/04/16 11:50:40;;;;;;;4.10;2.13;;;12.50;92.10;;;;;;5453056;26;20463;-67
2024/04/16 11:53:06;;;;;;;2.43;1.97;;;12.70;91.90;;;;;;5452606;26;20527;-65
2024/04/16 11:55:37;;;;;;;3.87;2.57;;;12.80;91.50;;;;;;5453981;26;20452;-63
2024/04/16 11:58:03;;;;;;;1.93;1.60;;;13.00;91.30;;;;;;5453693;26;20463;-65
2024/04/16 12:00:31;;;;;;;2.70;1.87;;;13.20;85.90;;;;;;5453510;26;20554;-65
2024/04/16 12:02:57;;;;;;;2.23;1.50;;;13.10;84.70;;;;;;5453215;26;20467;-66
2024/04/16 12:05:26;;;;;;;1.93;1.60;;;13.10;84.90;;;;;;5453969;26;20460;-65
2024/04/16 12:07:51;;;;;;;4.53;2.20;;;13.20;82.90;;;;;;5453588;26;20260;-65
2024/04/16 12:10:20;;;;;;;4.40;1.93;;;13.20;80.80;;;;;;5453250;26;20863;-65
2024/04/16 12:12:49;;;;;;;3.07;1.80;;;13.20;80.90;;;;;;5453173;26;20309;-65
2024/04/16 12:15:18;;;;;;;3.67;2.40;;;13.30;80.50;;;;;;5453244;26;20844;-65
2024/04/16 12:17:44;;;;;;;4.23;2.00;;;13.50;79.90;;;;;;5453275;26;20447;-66
2024/04/16 12:20:13;;;;;;;1.87;1.50;;;13.80;78.30;;;;;;5454090;26;20515;-65
2024/04/16 12:22:39;;;;;;;1.70;1.50;;;13.90;76.70;;;;;;5453807;26;20253;-64
2024/04/16 12:25:07;;;;;;;7.00;1.33;;;14.10;78.60;;;;;;5454879;26;20862;-64
2024/04/16 12:27:33;;;;;;;2.07;1.30;;;14.50;77.50;;;;;;5454545;26;20558;-64
2024/04/16 12:30:04;;;;;;;1.40;1.00;;;15.00;75.00;;;;;;5453835;26;20463;-66
2024/04/16 12:32:30;;;;;;;2.43;1.10;;;15.20;71.70;;;;;;5453401;26;20455;-66
2024/04/16 12:34:59;;;;;;;1.53;1.03;;;15.10;69.10;;;;;;5455469;26;21032;-64
2024/04/16 12:37:24;;;;;;;2.27;1.50;;;15.00;68.60;;;;;;5456691;26;20210;-65
2024/04/16 12:39:54;;;;;;;1.27;1.03;;;14.70;67.50;;;;;;5456161;26;20933;-65
2024/04/16 12:42:20;;;;;;;5.53;1.60;;;14.30;66.60;;;;;;5455916;26;20633;-67
2024/04/16 12:44:48;;;;;;;3.50;1.83;;;13.90;66.20;;;;;;5456630;26;20455;-66
2024/04/16 12:47:17;;;;;;;11.13;2.30;;;13.40;66.10;;;;;;5456660;26;20322;-66
2024/04/16 12:49:46;;;;;;;8.17;1.77;;;13.00;67.00;;;;;;5456636;26;21040;-66
2024/04/16 12:52:11;;;;;;;3.63;1.93;;;12.60;67.80;;;;;;5456338;26;20511;-66
2024/04/16 12:54:40;;;;;;;2.60;1.60;;;12.40;68.40;;;;;;5455407;26;20447;-66
2024/04/16 12:57:06;;;;;;;2.67;2.07;;;12.30;69.70;;;;;;5455525;26;20222;-66